Latest Weather Observations for Dunalley

IDT60801

Issued at 10:02 pm EDT Wednesday 18 October 2017 (issued every 30 minutes, with the page automatically refreshed every 10 minutes)

About weather observations | Map of weather stations | Latest weather observations for TAS | Other Formats
Station Details ID: 094254 Name: DUNALLEY (STROUD POINT) Lat: -42.90 Lon: 147.79 Height: 12.43 m
Data from the previous 72 hours. | See also: Recent months at Dunalley
Date/Time
EDT
Temp
°C
App
Temp
°C
Dew
Point
°C
Rel
Hum
%
Delta-T
°C
Wind Press
QNH
hPa
Press
MSL
hPa
Rain since
9am
mm
Dir  Spd
km/h
Gust
km/h
Spd
kts
Gust
kts
18/10:00pm 25.4 19.9 6.1 29 9.9 N 24 37 13 20 1015.4 1015.4 0.0
18/09:30pm 25.3 20.3 6.5 30 9.8 N 22 35 12 19 1015.4 1015.4 0.0
18/09:00pm 24.6 19.8 7.3 33 9.1 N 22 32 12 17 1015.2 1015.2 0.0
18/08:30pm 24.2 20.0 8.2 36 8.5 N 20 30 11 16 1015.0 1015.0 0.0
18/08:22pm 23.9 19.8 8.7 38 8.1 NNE 20 28 11 15 1014.9 1014.9 0.0
18/08:00pm 18.5 15.1 11.3 63 3.9 NE 20 28 11 15 1014.7 1014.7 0.0
18/07:30pm 18.6 14.0 10.9 61 4.2 NE 26 33 14 18 1014.5 1014.5 0.0
18/07:00pm 20.1 13.4 9.7 51 5.6 NE 35 43 19 23 1014.3 1014.3 0.0
18/06:30pm 21.2 14.2 9.8 48 6.1 NE 37 44 20 24 1014.2 1014.2 0.0
18/06:00pm 22.3 16.4 10.5 47 6.5 NE 32 37 17 20 1014.5 1014.5 0.0
18/05:30pm 21.9 16.2 11.9 53 5.6 NE 33 39 18 21 1014.6 1014.6 0.0
18/05:00pm 20.8 13.5 11.4 55 5.2 NE 41 48 22 26 1015.0 1015.0 0.0
18/04:30pm 22.6 16.2 12.0 51 6.0 NE 37 43 20 23 1015.3 1015.3 0.0
18/04:00pm 24.6 17.8 10.5 41 7.8 NE 37 43 20 23 1015.6 1015.6 0.0
18/03:30pm 24.6 18.2 10.8 42 7.7 ENE 35 43 19 23 1016.0 1016.0 0.0
18/03:00pm 24.0 18.3 9.9 41 7.7 NE 30 37 16 20 1016.7 1016.7 0.0
18/02:30pm 24.8 18.9 10.3 40 8.0 ENE 32 37 17 20 1017.2 1017.2 0.0
18/02:00pm 24.9 19.7 10.4 40 8.0 NE 28 33 15 18 1017.8 1017.8 0.0
18/01:30pm 25.1 21.3 11.3 42 7.8 NE 22 28 12 15 1018.4 1018.4 0.0
18/01:00pm 25.4 21.3 11.6 42 7.8 NE 24 28 13 15 1018.6 1018.6 0.0
18/12:30pm 25.1 20.8 10.6 40 8.1 ENE 24 28 13 15 1019.2 1019.2 0.0
18/12:00pm 23.4 19.0 10.5 44 7.1 NE 24 30 13 16 1019.6 1019.6 0.0
18/11:30am 22.5 18.4 10.0 45 6.8 ENE 22 26 12 14 1020.0 1020.0 0.0
18/11:00am 22.8 19.0 9.2 42 7.3 ENE 19 24 10 13 1020.4 1020.4 0.0
18/10:30am 21.8 18.2 10.0 47 6.4 ENE 19 24 10 13 1020.7 1020.7 0.0
18/10:00am 21.1 18.2 10.9 52 5.6 NE 17 20 9 11 1021.0 1021.0 0.0
18/09:30am 19.4 17.4 10.1 55 5.0 NE 11 15 6 8 1021.2 1021.2 0.0
18/09:00am 19.0 17.2 9.5 54 5.0 NE 9 13 5 7 1021.3 1021.3 0.0
18/08:30am 18.8 17.3 9.3 54 5.0 NNE 7 11 4 6 1021.3 1021.3 0.0
18/08:00am 18.6 16.6 8.8 53 5.1 NNE 9 13 5 7 1021.3 1021.3 0.0
18/07:30am 16.8 15.0 9.5 62 3.8 NNE 9 13 5 7 1021.2 1021.2 0.0
18/07:00am 15.9 13.6 9.1 64 3.5 NNE 11 15 6 8 1021.0 1021.0 0.0
18/06:30am 14.7 12.2 8.4 66 3.2 NNE 11 15 6 8 1020.8 1020.8 0.0
18/06:00am 14.2 11.7 8.2 67 3.0 NNE 11 13 6 7 1020.7 1020.7 0.0
18/05:30am 15.2 13.2 8.7 65 3.3 NNE 9 13 5 7 1020.3 1020.3 0.0
18/05:00am 16.4 15.0 9.6 64 3.5 NNE 7 11 4 6 1020.0 1020.0 0.0
18/04:30am 14.7 12.3 10.1 74 2.4 NNE 13 17 7 9 1019.8 1019.8 0.0
18/04:00am 15.0 12.4 10.8 76 2.2 NNE 15 22 8 12 1019.6 1019.6 0.0
18/03:30am 15.5 12.5 10.7 73 2.5 NE 17 24 9 13 1019.5 1019.5 0.0
18/03:00am 16.4 13.0 11.1 71 2.8 ENE 20 26 11 14 1019.5 1019.5 0.0
18/02:30am 16.6 13.5 11.7 73 2.7 NE 19 26 10 14 1019.6 1019.6 0.0
18/02:00am 14.7 12.5 12.0 84 1.5 NE 15 19 8 10 1020.0 1020.0 0.0
18/01:30am 14.5 11.9 12.0 85 1.4 NE 17 24 9 13 1020.1 1020.1 0.0
18/01:00am 14.9 11.5 12.4 85 1.4 NE 22 28 12 15 1020.1 1020.1 0.0
18/12:30am 14.7 11.4 12.7 88 1.1 ENE 22 30 12 16 1020.2 1020.2 0.0
18/12:00am 14.4 10.3 12.8 90 0.9 ENE 26 32 14 17 1020.5 1020.5 0.0
 
Date/Time
EDT
Temp
°C
App
Temp
°C
Dew
Point
°C
Rel
Hum
%
Delta-T
°C
Wind Press
QNH
hPa
Press
MSL
hPa
Rain since
9am
mm
Dir  Spd
km/h
Gust
km/h
Spd
kts
Gust
kts
17/11:30pm 14.5 11.5 12.7 89 1.0 ENE 20 26 11 14 1021.2 1021.2 0.0
17/11:00pm 14.7 11.0 12.7 88 1.1 ENE 24 28 13 15 1021.7 1021.7 0.0
17/10:30pm 14.6 11.2 12.6 88 1.1 ENE 22 28 12 15 1021.8 1021.8 0.0
17/10:00pm 14.9 10.8 12.6 86 1.3 NE 26 30 14 16 1021.9 1021.9 0.0
17/09:30pm 15.2 10.7 12.5 84 1.5 NE 28 33 15 18 1021.8 1021.8 0.0
17/09:00pm 15.2 10.3 12.5 84 1.5 NE 30 35 16 19 1021.6 1021.6 0.0
17/08:30pm 15.4 10.8 12.2 81 1.7 NE 28 35 15 19 1021.5 1021.5 0.0
17/08:00pm 15.7 10.5 11.5 76 2.3 NE 30 35 16 19 1021.2 1021.2 0.0
17/07:30pm 16.5 11.6 11.2 71 2.9 NE 28 32 15 17 1021.0 1021.0 0.0
17/07:00pm 17.8 12.5 11.1 65 3.6 NE 30 33 16 18 1020.7 1020.7 0.0
17/06:30pm 19.1 13.8 11.2 60 4.3 NE 30 33 16 18 1020.7 1020.7 0.0
17/06:00pm 19.9 14.9 11.1 57 4.8 NE 28 32 15 17 1020.7 1020.7 0.0
17/05:30pm 20.3 15.6 12.0 59 4.6 NE 28 32 15 17 1020.6 1020.6 0.0
17/05:00pm 20.6 16.8 12.3 59 4.6 NE 24 28 13 15 1020.7 1020.7 0.0
17/04:30pm 20.3 16.0 12.0 59 4.6 NE 26 28 14 15 1020.8 1020.8 0.0
17/04:00pm 20.5 16.5 11.7 57 4.9 NE 24 28 13 15 1020.8 1020.8 0.0
17/03:30pm 22.5 19.2 11.6 50 6.1 NE 20 24 11 13 1020.8 1020.8 0.0
17/03:00pm 23.0 19.6 11.1 47 6.6 NE 20 24 11 13 1020.9 1020.9 0.0
17/02:30pm 22.7 19.3 10.5 46 6.7 NE 19 24 10 13 1021.1 1021.1 0.0
17/02:00pm 22.6 20.1 12.3 52 5.8 NE 17 20 9 11 1021.4 1021.4 0.0
17/01:30pm 22.7 19.9 11.4 49 6.3 ENE 17 22 9 12 1021.5 1021.5 0.0
17/01:00pm 20.4 18.3 12.4 60 4.5 NE 15 19 8 10 1021.7 1021.7 0.0
17/12:30pm 20.0 18.5 10.7 55 5.1 ENE 9 13 5 7 1022.2 1022.2 0.0
17/12:00pm 19.8 18.9 11.3 58 4.6 ENE 7 9 4 5 1022.3 1022.3 0.0
17/11:30am 17.9 16.8 10.0 60 4.2 ENE 6 7 3 4 1022.7 1022.7 0.0
17/11:00am 17.5 16.6 10.6 64 3.7 ENE 6 9 3 5 1023.0 1023.0 0.0
17/10:30am 15.6 14.8 11.0 74 2.5 ENE 6 6 3 3 1023.2 1023.2 0.0
17/10:00am 15.6 15.4 11.8 78 2.0 ENE 4 6 2 3 1023.2 1023.2 0.0
17/09:30am 14.3 14.0 11.6 84 1.4 ENE 4 4 2 2 1023.0 1023.0 0.0
17/09:00am 13.8 13.6 11.8 88 1.1 ENE 4 6 2 3 1023.0 1023.0 0.0
17/08:30am 14.4 14.9 12.8 90 0.9 ENE 2 4 1 2 1022.9 1022.9 0.0
17/08:00am 13.1 13.6 11.7 91 0.7 CALM 0 0 0 0 1022.8 1022.8 0.0
17/07:30am 12.8 13.3 11.5 92 0.7 CALM 0 0 0 0 1022.6 1022.6 0.0
17/07:00am 11.5 11.7 10.4 93 0.6 CALM 0 0 0 0 1022.1 1022.1 0.0
17/06:30am 10.0 8.4 8.8 92 0.6 ENE 7 9 4 5 1021.9 1021.9 0.0
17/06:00am 10.6 9.4 9.5 93 0.5 ENE 6 9 3 5 1021.8 1021.8 0.0
17/05:30am 10.8 9.1 9.7 93 0.6 ENE 9 15 5 8 1021.5 1021.5 0.0
17/05:00am 10.3 8.4 9.2 93 0.5 ENE 9 13 5 7 1021.5 1021.5 0.0
17/04:30am 9.5 7.8 8.4 93 0.5 ENE 7 9 4 5 1021.7 1021.7 0.0
17/04:00am 11.2 11.3 10.1 93 0.6 CALM 0 2 0 1 1021.8 1021.8 0.0
17/03:30am 11.1 10.4 9.9 92 0.6 ENE 4 6 2 3 1022.0 1022.0 0.0
17/03:00am 11.5 11.6 10.2 92 0.7 CALM 0 0 0 0 1021.9 1021.9 0.0
17/02:30am 11.4 11.5 10.1 92 0.7 CALM 0 2 0 1 1022.1 1022.1 0.0
17/02:00am 11.5 11.6 10.1 91 0.7 CALM 0 0 0 0 1022.5 1022.5 0.0
17/01:30am 11.3 11.3 9.7 90 0.8 CALM 0 0 0 0 1022.8 1022.8 0.0
17/01:00am 11.8 11.9 10.2 90 0.8 CALM 0 0 0 0 1023.0 1023.0 0.0
17/12:30am 12.2 12.0 10.4 89 0.9 ENE 2 4 1 2 1023.4 1023.4 0.0
17/12:00am 11.8 11.1 10.0 89 0.9 ENE 4 7 2 4 1023.5 1023.5 0.0
 
Date/Time
EDT
Temp
°C
App
Temp
°C
Dew
Point
°C
Rel
Hum
%
Delta-T
°C
Wind Press
QNH
hPa
Press
MSL
hPa
Rain since
9am
mm
Dir  Spd
km/h
Gust
km/h
Spd
kts
Gust
kts
16/11:30pm 12.4 12.2 10.6 89 0.9 ENE 2 4 1 2 1023.7 1023.7 0.0
16/11:00pm 12.6 11.7 10.7 88 1.0 ENE 6 9 3 5 1024.0 1024.0 0.0
16/10:30pm 12.9 12.9 11.0 88 1.0 ENE 2 7 1 4 1024.1 1024.1 0.0
16/10:00pm 12.3 12.1 10.4 88 1.0 ENE 2 6 1 3 1024.3 1024.3 0.0
16/09:30pm 12.8 12.7 10.9 88 1.0 ENE 2 6 1 3 1024.4 1024.4 0.0
16/09:00pm 13.3 11.5 11.0 86 1.2 ENE 11 15 6 8 1024.3 1024.3 0.0
16/08:30pm 14.0 11.6 11.5 85 1.3 ENE 15 17 8 9 1024.1 1024.1 0.0
16/08:00pm 14.0 12.3 11.3 84 1.4 NE 11 13 6 7 1023.8 1023.8 0.0
16/07:30pm 14.4 12.4 11.4 82 1.6 NE 13 17 7 9 1023.4 1023.4 0.0
16/07:00pm 15.2 12.5 11.6 79 1.9 NE 17 20 9 11 1023.2 1023.2 0.0
16/06:30pm 16.1 13.3 11.5 74 2.5 ENE 17 22 9 12 1023.0 1023.0 0.0
16/06:00pm 17.0 13.7 11.5 70 3.0 ENE 20 24 11 13 1022.8 1022.8 0.0
16/05:30pm 18.2 14.1 11.5 65 3.7 NE 24 30 13 16 1022.6 1022.6 0.0
16/05:00pm 18.5 13.6 11.3 63 3.9 NE 28 33 15 18 1022.5 1022.5 0.0
16/04:30pm 18.3 13.1 11.6 65 3.7 NE 30 35 16 19 1022.4 1022.4 0.0
16/04:00pm 18.1 12.6 11.9 67 3.4 NE 32 37 17 20 1022.5 1022.5 0.0
16/03:30pm 19.3 14.3 11.1 59 4.5 NE 28 32 15 17 1022.7 1022.7 0.0
16/03:00pm 20.7 16.4 12.1 58 4.8 NE 26 30 14 16 1022.9 1022.9 0.0
16/02:30pm 20.1 16.0 11.6 58 4.7 NE 24 30 13 16 1023.1 1023.1 0.0
16/02:00pm 19.8 15.4 11.6 59 4.5 NE 26 28 14 15 1023.5 1023.5 0.0
16/01:30pm 19.7 15.7 11.7 60 4.4 NE 24 30 13 16 1023.6 1023.6 0.0
16/01:00pm 19.2 15.5 11.5 61 4.2 NE 22 26 12 14 1023.7 1023.7 0.0
16/12:30pm 19.0 15.3 11.6 62 4.1 NE 22 28 12 15 1024.0 1024.0 0.0
16/12:00pm 18.6 15.3 11.7 64 3.8 NE 20 26 11 14 1024.2 1024.2 0.0
16/11:30am 18.0 14.6 11.3 65 3.6 NE 20 22 11 12 1024.6 1024.6 0.0
16/11:00am 17.3 14.1 11.1 67 3.3 NE 19 22 10 12 1024.9 1024.9 0.0
16/10:30am 16.6 13.3 10.9 69 3.1 ENE 19 20 10 11 1025.2 1025.2 0.0
16/10:00am 16.3 13.3 10.6 69 3.0 NE 17 20 9 11 1025.3 1025.3 0.0
16/09:30am 15.8 13.7 11.0 73 2.6 ENE 13 20 7 11 1025.3 1025.3 0.0
16/09:00am 14.9 12.8 11.1 78 2.0 ENE 13 17 7 9 1025.2 1025.2 0.0
16/08:30am 14.1 12.5 11.6 85 1.3 NE 11 13 6 7 1025.3 1025.3 0.0
16/08:00am 11.8 11.9 10.0 89 0.9 CALM 0 0 0 0 1025.4 1025.4 0.0
16/07:30am 10.9 10.8 9.3 90 0.8 CALM 0 0 0 0 1025.3 1025.3 0.0
16/07:00am 9.8 9.4 8.2 90 0.8 CALM 0 0 0 0 1025.1 1025.1 0.0
16/06:30am 10.3 10.0 8.6 89 0.8 CALM 0 4 0 2 1024.9 1024.9 0.0
16/06:00am 10.2 9.9 8.5 89 0.8 CALM 0 0 0 0 1024.7 1024.7 0.0
16/05:30am 10.0 8.9 8.3 89 0.8 NE 4 6 2 3 1024.5 1024.5 0.0
16/05:00am 9.8 8.0 8.1 89 0.8 NE 7 9 4 5 1024.5 1024.5 0.0
16/04:30am 9.8 8.0 7.9 88 0.9 NE 7 7 4 4 1024.6 1024.6 0.0
16/04:00am 10.5 8.9 8.6 88 0.9 NE 7 9 4 5 1024.8 1024.8 0.0
16/03:30am 10.4 8.9 8.5 88 0.9 NE 6 7 3 4 1024.9 1024.9 0.0
16/03:00am 10.4 8.9 8.5 88 0.9 NE 6 7 3 4 1025.2 1025.2 0.0
16/02:30am 11.2 9.3 9.1 87 1.0 NE 9 11 5 6 1025.4 1025.4 0.0
16/02:00am 12.1 9.3 10.0 87 1.1 NE 15 19 8 10 1025.5 1025.5 0.0
16/01:30am 12.6 8.6 10.5 87 1.1 NE 22 28 12 15 1025.6 1025.6 0.0
16/01:00am 12.6 8.3 10.7 88 1.0 NE 24 30 13 16 1025.7 1025.8 0.0
16/12:30am 12.4 8.0 10.5 88 1.0 NE 24 33 13 18 1025.7 1025.8 0.0
16/12:00am 12.4 7.3 10.5 88 1.0 ENE 28 33 15 18 1025.6 1025.6 0.0
 
Date/Time
EDT
Temp
°C
App
Temp
°C
Dew
Point
°C
Rel
Hum
%
Delta-T
°C
Wind Press
QNH
hPa
Press
MSL
hPa
Rain since
9am
mm
Dir  Spd
km/h
Gust
km/h
Spd
kts
Gust
kts
15/11:30pm 12.3 7.1 10.4 88 1.0 ENE 28 35 15 19 1025.5 1025.5 0.0
15/11:00pm 12.4 7.7 10.5 88 1.0 NE 26 32 14 17 1025.5 1025.5 0.0
15/10:30pm 12.4 6.9 10.5 88 1.0 NE 30 39 16 21 1025.3 1025.3 0.0

Other Formats:

Comma delimited format used in spreadsheet applications
http://www.bom.gov.au/fwo/IDT60801/IDT60801.94951.axf

JavaScript Object Notation format (JSON) in row-major order
http://www.bom.gov.au/fwo/IDT60801/IDT60801.94951.json